sensor_id;sensor_type;location;lat;lon;timestamp;temperature;humidity
9095;DHT22;4583;49.796;9.902;2022-10-29T00:04:32;14.50;99.90
9095;DHT22;4583;49.796;9.902;2022-10-29T00:14:34;14.40;99.90
9095;DHT22;4583;49.796;9.902;2022-10-29T00:24:35;14.40;99.90
9095;DHT22;4583;49.796;9.902;2022-10-29T00:34:37;14.30;99.90
9095;DHT22;4583;49.796;9.902;2022-10-29T00:44:39;14.30;99.90
9095;DHT22;4583;49.796;9.902;2022-10-29T00:54:42;14.10;99.90
9095;DHT22;4583;49.796;9.902;2022-10-29T01:04:45;14.10;99.90
9095;DHT22;4583;49.796;9.902;2022-10-29T01:15:12;14.10;99.90
9095;DHT22;4583;49.796;9.902;2022-10-29T01:35:55;14.00;99.90
9095;DHT22;4583;49.796;9.902;2022-10-29T01:46:03;13.90;99.90
9095;DHT22;4583;49.796;9.902;2022-10-29T01:56:06;13.80;99.90
9095;DHT22;4583;49.796;9.902;2022-10-29T02:16:29;13.70;99.90
9095;DHT22;4583;49.796;9.902;2022-10-29T02:26:31;13.60;99.90
9095;DHT22;4583;49.796;9.902;2022-10-29T02:36:33;13.60;99.90
9095;DHT22;4583;49.796;9.902;2022-10-29T02:46:34;13.60;99.90
9095;DHT22;4583;49.796;9.902;2022-10-29T02:56:40;13.50;99.90
9095;DHT22;4583;49.796;9.902;2022-10-29T03:06:41;13.30;99.90
9095;DHT22;4583;49.796;9.902;2022-10-29T03:16:43;13.30;99.90
9095;DHT22;4583;49.796;9.902;2022-10-29T03:26:45;13.30;99.90
9095;DHT22;4583;49.796;9.902;2022-10-29T03:36:46;13.20;99.90
9095;DHT22;4583;49.796;9.902;2022-10-29T03:46:48;13.20;99.90
9095;DHT22;4583;49.796;9.902;2022-10-29T03:56:50;13.20;99.90
9095;DHT22;4583;49.796;9.902;2022-10-29T04:06:51;13.20;99.90
9095;DHT22;4583;49.796;9.902;2022-10-29T04:16:53;14.00;99.90
9095;DHT22;4583;49.796;9.902;2022-10-29T04:26:55;13.20;99.90
9095;DHT22;4583;49.796;9.902;2022-10-29T04:37:16;13.20;99.90
9095;DHT22;4583;49.796;9.902;2022-10-29T04:47:18;13.10;99.90
9095;DHT22;4583;49.796;9.902;2022-10-29T04:57:20;13.00;99.90
9095;DHT22;4583;49.796;9.902;2022-10-29T05:07:21;13.00;99.90
9095;DHT22;4583;49.796;9.902;2022-10-29T05:17:24;12.90;99.90
9095;DHT22;4583;49.796;9.902;2022-10-29T05:27:26;13.00;99.90
9095;DHT22;4583;49.796;9.902;2022-10-29T05:37:27;13.00;99.90
9095;DHT22;4583;49.796;9.902;2022-10-29T05:47:29;13.00;99.90
9095;DHT22;4583;49.796;9.902;2022-10-29T05:57:31;13.00;99.90
9095;DHT22;4583;49.796;9.902;2022-10-29T06:07:33;13.00;99.90
9095;DHT22;4583;49.796;9.902;2022-10-29T06:17:39;12.90;99.90
9095;DHT22;4583;49.796;9.902;2022-10-29T06:27:42;12.90;99.90
9095;DHT22;4583;49.796;9.902;2022-10-29T06:37:43;13.00;99.90
9095;DHT22;4583;49.796;9.902;2022-10-29T06:47:45;12.90;99.90
9095;DHT22;4583;49.796;9.902;2022-10-29T06:57:47;13.00;99.90
9095;DHT22;4583;49.796;9.902;2022-10-29T07:07:55;13.10;99.90
9095;DHT22;4583;49.796;9.902;2022-10-29T07:18:03;13.20;99.90
9095;DHT22;4583;49.796;9.902;2022-10-29T07:28:17;13.10;99.90
9095;DHT22;4583;49.796;9.902;2022-10-29T07:38:21;13.20;99.90
9095;DHT22;4583;49.796;9.902;2022-10-29T07:48:22;13.20;99.90
9095;DHT22;4583;49.796;9.902;2022-10-29T07:58:25;13.40;99.90
9095;DHT22;4583;49.796;9.902;2022-10-29T08:08:27;13.60;99.90
9095;DHT22;4583;49.796;9.902;2022-10-29T08:18:28;13.60;99.90
9095;DHT22;4583;49.796;9.902;2022-10-29T08:28:30;13.60;99.90
9095;DHT22;4583;49.796;9.902;2022-10-29T08:38:36;13.60;99.90
9095;DHT22;4583;49.796;9.902;2022-10-29T08:48:47;13.90;99.90
9095;DHT22;4583;49.796;9.902;2022-10-29T08:59:05;13.90;99.90
9095;DHT22;4583;49.796;9.902;2022-10-29T09:19:44;14.30;99.90
9095;DHT22;4583;49.796;9.902;2022-10-29T09:30:16;14.50;99.90
9095;DHT22;4583;49.796;9.902;2022-10-29T09:40:29;14.80;99.90
9095;DHT22;4583;49.796;9.902;2022-10-29T09:50:44;15.00;99.90
9095;DHT22;4583;49.796;9.902;2022-10-29T10:00:49;15.40;99.90
9095;DHT22;4583;49.796;9.902;2022-10-29T10:10:54;15.50;99.90
9095;DHT22;4583;49.796;9.902;2022-10-29T10:31:11;15.80;99.90
9095;DHT22;4583;49.796;9.902;2022-10-29T10:41:14;16.00;99.90
9095;DHT22;4583;49.796;9.902;2022-10-29T10:51:28;16.20;99.90
9095;DHT22;4583;49.796;9.902;2022-10-29T11:01:32;16.40;99.90
9095;DHT22;4583;49.796;9.902;2022-10-29T11:11:43;16.50;99.90
9095;DHT22;4583;49.796;9.902;2022-10-29T11:22:00;16.70;99.90
9095;DHT22;4583;49.796;9.902;2022-10-29T11:32:18;17.20;99.90
9095;DHT22;4583;49.796;9.902;2022-10-29T11:42:21;17.50;99.90
9095;DHT22;4583;49.796;9.902;2022-10-29T12:03:37;18.10;99.90
9095;DHT22;4583;49.796;9.902;2022-10-29T12:14:09;18.40;99.90
9095;DHT22;4583;49.796;9.902;2022-10-29T12:24:36;18.70;99.90
9095;DHT22;4583;49.796;9.902;2022-10-29T12:35:05;18.80;99.90
9095;DHT22;4583;49.796;9.902;2022-10-29T12:55:20;19.10;99.90
9095;DHT22;4583;49.796;9.902;2022-10-29T13:05:42;19.30;99.90
9095;DHT22;4583;49.796;9.902;2022-10-29T13:15:46;19.60;99.90
9095;DHT22;4583;49.796;9.902;2022-10-29T13:56:19;19.70;99.90
9095;DHT22;4583;49.796;9.902;2022-10-29T14:06:28;19.70;99.90
9095;DHT22;4583;49.796;9.902;2022-10-29T14:16:32;19.60;99.90
9095;DHT22;4583;49.796;9.902;2022-10-29T14:26:39;19.50;99.90
9095;DHT22;4583;49.796;9.902;2022-10-29T14:36:44;19.40;99.90
9095;DHT22;4583;49.796;9.902;2022-10-29T14:47:05;19.40;99.90
9095;DHT22;4583;49.796;9.902;2022-10-29T14:57:14;19.30;99.90
9095;DHT22;4583;49.796;9.902;2022-10-29T15:17:29;19.10;99.90
9095;DHT22;4583;49.796;9.902;2022-10-29T15:27:34;19.00;99.90
9095;DHT22;4583;49.796;9.902;2022-10-29T15:37:41;18.90;99.90
9095;DHT22;4583;49.796;9.902;2022-10-29T15:57:52;18.70;99.90
9095;DHT22;4583;49.796;9.902;2022-10-29T16:07:56;18.60;99.90
9095;DHT22;4583;49.796;9.902;2022-10-29T16:18:01;18.50;99.90
9095;DHT22;4583;49.796;9.902;2022-10-29T16:28:03;18.40;99.90
9095;DHT22;4583;49.796;9.902;2022-10-29T16:38:04;18.30;99.90
9095;DHT22;4583;49.796;9.902;2022-10-29T16:48:06;18.10;99.90
9095;DHT22;4583;49.796;9.902;2022-10-29T16:58:10;18.00;99.90
9095;DHT22;4583;49.796;9.902;2022-10-29T17:08:12;17.90;99.90
9095;DHT22;4583;49.796;9.902;2022-10-29T17:18:14;17.70;99.90
9095;DHT22;4583;49.796;9.902;2022-10-29T17:28:16;17.60;99.90
9095;DHT22;4583;49.796;9.902;2022-10-29T17:38:18;17.50;99.90
9095;DHT22;4583;49.796;9.902;2022-10-29T17:48:19;17.30;99.90
9095;DHT22;4583;49.796;9.902;2022-10-29T17:58:26;17.30;99.90
9095;DHT22;4583;49.796;9.902;2022-10-29T18:08:28;17.20;99.90
9095;DHT22;4583;49.796;9.902;2022-10-29T18:18:34;17.00;99.90
9095;DHT22;4583;49.796;9.902;2022-10-29T18:28:58;16.90;99.90
9095;DHT22;4583;49.796;9.902;2022-10-29T18:39:00;16.80;99.90
9095;DHT22;4583;49.796;9.902;2022-10-29T18:49:02;16.60;99.90
9095;DHT22;4583;49.796;9.902;2022-10-29T18:59:04;16.50;99.90
9095;DHT22;4583;49.796;9.902;2022-10-29T19:09:08;16.40;99.90
9095;DHT22;4583;49.796;9.902;2022-10-29T19:19:11;16.20;99.90
9095;DHT22;4583;49.796;9.902;2022-10-29T19:29:15;16.10;99.90
9095;DHT22;4583;49.796;9.902;2022-10-29T19:39:17;15.90;99.90
9095;DHT22;4583;49.796;9.902;2022-10-29T19:49:20;15.90;99.90
9095;DHT22;4583;49.796;9.902;2022-10-29T19:59:21;15.80;99.90
9095;DHT22;4583;49.796;9.902;2022-10-29T20:09:23;15.60;99.90
9095;DHT22;4583;49.796;9.902;2022-10-29T20:19:25;15.40;99.90
9095;DHT22;4583;49.796;9.902;2022-10-29T20:29:27;15.30;99.90
9095;DHT22;4583;49.796;9.902;2022-10-29T20:39:28;15.30;99.90
9095;DHT22;4583;49.796;9.902;2022-10-29T20:49:34;15.30;99.90
9095;DHT22;4583;49.796;9.902;2022-10-29T20:59:35;15.30;99.90
9095;DHT22;4583;49.796;9.902;2022-10-29T21:09:37;15.20;99.90
9095;DHT22;4583;49.796;9.902;2022-10-29T21:19:39;15.10;99.90
9095;DHT22;4583;49.796;9.902;2022-10-29T21:29:40;15.00;99.90
9095;DHT22;4583;49.796;9.902;2022-10-29T21:39:42;15.00;99.90
9095;DHT22;4583;49.796;9.902;2022-10-29T21:49:44;14.90;99.90
9095;DHT22;4583;49.796;9.902;2022-10-29T21:59:52;14.90;99.90
9095;DHT22;4583;49.796;9.902;2022-10-29T22:09:54;14.90;99.90
9095;DHT22;4583;49.796;9.902;2022-10-29T22:19:56;14.90;99.90
9095;DHT22;4583;49.796;9.902;2022-10-29T22:29:58;14.90;99.90
9095;DHT22;4583;49.796;9.902;2022-10-29T22:39:59;14.90;99.90
9095;DHT22;4583;49.796;9.902;2022-10-29T22:50:01;14.90;99.90
9095;DHT22;4583;49.796;9.902;2022-10-29T23:00:03;14.70;99.90
9095;DHT22;4583;49.796;9.902;2022-10-29T23:10:05;14.60;99.90
9095;DHT22;4583;49.796;9.902;2022-10-29T23:20:07;14.50;99.90
9095;DHT22;4583;49.796;9.902;2022-10-29T23:30:09;14.50;99.90
9095;DHT22;4583;49.796;9.902;2022-10-29T23:40:11;14.50;99.90
9095;DHT22;4583;49.796;9.902;2022-10-29T23:50:13;14.50;99.90
